sensor_id;sensor_type;location;lat;lon;timestamp;pressure;altitude;pressure_sealevel;temperature;humidity
35435;BME280;21556;55.782;37.528;2022-08-07T00:01:08;99881.81;;;25.59;100.00
35435;BME280;21556;55.782;37.528;2022-08-07T00:03:34;99879.34;;;25.55;100.00
35435;BME280;21556;55.782;37.528;2022-08-07T00:06:00;99881.19;;;25.53;100.00
35435;BME280;21556;55.782;37.528;2022-08-07T00:08:26;99884.97;;;25.49;100.00
35435;BME280;21556;55.782;37.528;2022-08-07T00:10:52;99883.84;;;25.54;100.00
35435;BME280;21556;55.782;37.528;2022-08-07T00:13:19;99877.06;;;25.45;100.00
35435;BME280;21556;55.782;37.528;2022-08-07T00:15:47;99881.34;;;25.50;100.00
35435;BME280;21556;55.782;37.528;2022-08-07T00:18:14;99874.63;;;25.39;100.00
35435;BME280;21556;55.782;37.528;2022-08-07T00:20:40;99872.81;;;25.40;100.00
35435;BME280;21556;55.782;37.528;2022-08-07T00:23:06;99881.19;;;25.53;100.00
35435;BME280;21556;55.782;37.528;2022-08-07T00:25:32;99874.41;;;25.44;100.00
35435;BME280;21556;55.782;37.528;2022-08-07T00:27:58;99874.53;;;25.41;100.00
35435;BME280;21556;55.782;37.528;2022-08-07T00:30:24;99873.00;;;25.35;100.00
35435;BME280;21556;55.782;37.528;2022-08-07T00:32:50;99867.13;;;25.26;100.00
35435;BME280;21556;55.782;37.528;2022-08-07T00:35:17;99867.25;;;25.23;100.00
35435;BME280;21556;55.782;37.528;2022-08-07T00:37:43;99867.63;;;25.13;100.00
35435;BME280;21556;55.782;37.528;2022-08-07T00:40:10;99870.00;;;25.21;100.00
35435;BME280;21556;55.782;37.528;2022-08-07T00:42:37;99866.78;;;25.13;100.00
35435;BME280;21556;55.782;37.528;2022-08-07T00:45:04;99872.72;;;25.19;100.00
35435;BME280;21556;55.782;37.528;2022-08-07T00:47:31;99869.69;;;25.29;100.00
35435;BME280;21556;55.782;37.528;2022-08-07T00:49:57;99866.06;;;25.30;100.00
35435;BME280;21556;55.782;37.528;2022-08-07T00:52:22;99864.75;;;25.18;100.00
35435;BME280;21556;55.782;37.528;2022-08-07T00:54:49;99861.22;;;25.17;100.00
35435;BME280;21556;55.782;37.528;2022-08-07T00:57:15;99858.63;;;25.14;100.00
35435;BME280;21556;55.782;37.528;2022-08-07T00:59:42;99863.88;;;25.17;100.00
35435;BME280;21556;55.782;37.528;2022-08-07T01:02:10;99860.78;;;25.05;100.00
35435;BME280;21556;55.782;37.528;2022-08-07T01:04:37;99857.41;;;25.00;100.00
35435;BME280;21556;55.782;37.528;2022-08-07T01:07:04;99861.16;;;24.95;100.00
35435;BME280;21556;55.782;37.528;2022-08-07T01:09:31;99866.25;;;25.02;100.00
35435;BME280;21556;55.782;37.528;2022-08-07T01:11:57;99862.91;;;24.96;100.00
35435;BME280;21556;55.782;37.528;2022-08-07T01:14:23;99864.00;;;24.91;100.00
35435;BME280;21556;55.782;37.528;2022-08-07T01:16:50;99868.34;;;24.95;100.00
35435;BME280;21556;55.782;37.528;2022-08-07T01:19:20;99863.59;;;25.02;100.00
35435;BME280;21556;55.782;37.528;2022-08-07T01:21:51;99864.75;;;24.94;100.00
35435;BME280;21556;55.782;37.528;2022-08-07T01:24:17;99863.97;;;24.92;100.00
35435;BME280;21556;55.782;37.528;2022-08-07T01:26:44;99867.00;;;24.83;100.00
35435;BME280;21556;55.782;37.528;2022-08-07T01:29:10;99864.47;;;24.80;100.00
35435;BME280;21556;55.782;37.528;2022-08-07T01:31:38;99857.09;;;24.85;100.00
35435;BME280;21556;55.782;37.528;2022-08-07T01:34:04;99866.69;;;24.91;100.00
35435;BME280;21556;55.782;37.528;2022-08-07T01:36:34;99867.28;;;24.99;100.00
35435;BME280;21556;55.782;37.528;2022-08-07T01:39:05;99869.38;;;24.91;100.00
35435;BME280;21556;55.782;37.528;2022-08-07T01:41:32;99862.28;;;24.90;100.00
35435;BME280;21556;55.782;37.528;2022-08-07T01:44:01;99861.09;;;24.97;100.00
35435;BME280;21556;55.782;37.528;2022-08-07T01:46:30;99865.66;;;24.95;100.00
35435;BME280;21556;55.782;37.528;2022-08-07T01:48:56;99864.84;;;24.93;100.00
35435;BME280;21556;55.782;37.528;2022-08-07T01:51:24;99862.06;;;24.94;100.00
35435;BME280;21556;55.782;37.528;2022-08-07T01:53:56;99864.91;;;24.91;100.00
35435;BME280;21556;55.782;37.528;2022-08-07T01:59:45;99860.94;;;24.78;100.00
35435;BME280;21556;55.782;37.528;2022-08-07T02:02:23;99856.09;;;24.88;100.00
35435;BME280;21556;55.782;37.528;2022-08-07T02:04:59;99860.53;;;24.89;100.00
35435;BME280;21556;55.782;37.528;2022-08-07T02:07:46;99857.84;;;24.89;100.00
35435;BME280;21556;55.782;37.528;2022-08-07T02:10:16;99857.63;;;24.95;100.00
35435;BME280;21556;55.782;37.528;2022-08-07T02:12:44;99847.69;;;24.97;100.00
35435;BME280;21556;55.782;37.528;2022-08-07T02:15:21;99847.88;;;24.92;100.00
35435;BME280;21556;55.782;37.528;2022-08-07T02:17:48;99844.97;;;24.75;100.00
35435;BME280;21556;55.782;37.528;2022-08-07T02:20:15;99838.13;;;24.90;100.00
35435;BME280;21556;55.782;37.528;2022-08-07T02:22:42;99851.34;;;24.94;100.00
35435;BME280;21556;55.782;37.528;2022-08-07T02:25:10;99843.00;;;24.80;100.00
35435;BME280;21556;55.782;37.528;2022-08-07T02:27:38;99844.34;;;24.90;100.00
35435;BME280;21556;55.782;37.528;2022-08-07T02:30:07;99849.34;;;24.78;100.00
35435;BME280;21556;55.782;37.528;2022-08-07T02:32:34;99838.53;;;24.79;100.00
35435;BME280;21556;55.782;37.528;2022-08-07T02:35:04;99840.91;;;24.87;100.00
35435;BME280;21556;55.782;37.528;2022-08-07T02:37:32;99835.72;;;24.84;100.00
35435;BME280;21556;55.782;37.528;2022-08-07T02:40:02;99843.22;;;24.74;100.00
35435;BME280;21556;55.782;37.528;2022-08-07T02:42:31;99845.50;;;24.85;100.00
35435;BME280;21556;55.782;37.528;2022-08-07T02:45:00;99834.69;;;24.86;100.00
35435;BME280;21556;55.782;37.528;2022-08-07T02:47:30;99844.09;;;24.74;100.00
35435;BME280;21556;55.782;37.528;2022-08-07T02:50:05;99846.16;;;24.90;100.00
35435;BME280;21556;55.782;37.528;2022-08-07T02:52:46;99844.03;;;24.98;100.00
35435;BME280;21556;55.782;37.528;2022-08-07T02:55:24;99848.19;;;24.85;100.00
35435;BME280;21556;55.782;37.528;2022-08-07T02:57:53;99849.91;;;24.86;100.00
35435;BME280;21556;55.782;37.528;2022-08-07T03:00:22;99849.00;;;24.63;100.00
35435;BME280;21556;55.782;37.528;2022-08-07T03:02:49;99851.88;;;24.59;100.00
35435;BME280;21556;55.782;37.528;2022-08-07T03:05:18;99847.19;;;24.64;100.00
35435;BME280;21556;55.782;37.528;2022-08-07T03:07:45;99854.41;;;24.62;100.00
35435;BME280;21556;55.782;37.528;2022-08-07T03:10:13;99851.63;;;24.65;100.00
35435;BME280;21556;55.782;37.528;2022-08-07T03:12:39;99851.41;;;24.71;100.00
35435;BME280;21556;55.782;37.528;2022-08-07T03:15:10;99854.16;;;24.69;100.00
35435;BME280;21556;55.782;37.528;2022-08-07T03:17:41;99854.25;;;24.66;100.00
35435;BME280;21556;55.782;37.528;2022-08-07T03:20:09;99855.88;;;24.70;100.00
35435;BME280;21556;55.782;37.528;2022-08-07T03:22:37;99852.03;;;24.78;100.00
35435;BME280;21556;55.782;37.528;2022-08-07T03:25:05;99854.66;;;24.79;100.00
35435;BME280;21556;55.782;37.528;2022-08-07T03:27:41;99850.75;;;24.64;100.00
35435;BME280;21556;55.782;37.528;2022-08-07T03:30:09;99859.25;;;24.76;100.00
35435;BME280;21556;55.782;37.528;2022-08-07T03:32:40;99858.34;;;24.77;100.00
35435;BME280;21556;55.782;37.528;2022-08-07T03:35:13;99853.84;;;24.77;100.00
35435;BME280;21556;55.782;37.528;2022-08-07T03:37:48;99854.25;;;24.66;100.00
35435;BME280;21556;55.782;37.528;2022-08-07T03:40:18;99851.59;;;24.66;100.00
35435;BME280;21556;55.782;37.528;2022-08-07T03:42:44;99850.53;;;24.70;100.00
35435;BME280;21556;55.782;37.528;2022-08-07T03:45:13;99853.09;;;24.73;100.00
35435;BME280;21556;55.782;37.528;2022-08-07T03:47:40;99852.50;;;24.65;100.00
35435;BME280;21556;55.782;37.528;2022-08-07T03:50:06;99842.94;;;24.82;100.00
35435;BME280;21556;55.782;37.528;2022-08-07T03:52:39;99845.19;;;24.69;100.00
35435;BME280;21556;55.782;37.528;2022-08-07T03:55:09;99840.25;;;24.82;100.00
35435;BME280;21556;55.782;37.528;2022-08-07T03:57:40;99852.06;;;24.76;100.00
35435;BME280;21556;55.782;37.528;2022-08-07T04:00:07;99854.19;;;24.68;100.00
35435;BME280;21556;55.782;37.528;2022-08-07T04:02:41;99848.09;;;24.86;100.00
35435;BME280;21556;55.782;37.528;2022-08-07T04:05:11;99845.06;;;24.95;100.00
35435;BME280;21556;55.782;37.528;2022-08-07T04:07:43;99847.03;;;24.90;100.00
35435;BME280;21556;55.782;37.528;2022-08-07T04:10:10;99854.59;;;24.81;100.00
35435;BME280;21556;55.782;37.528;2022-08-07T04:12:37;99850.09;;;24.81;100.00
35435;BME280;21556;55.782;37.528;2022-08-07T04:15:04;99856.56;;;24.76;100.00
35435;BME280;21556;55.782;37.528;2022-08-07T04:17:32;99855.09;;;24.90;100.00
35435;BME280;21556;55.782;37.528;2022-08-07T04:19:58;99850.34;;;24.97;100.00
35435;BME280;21556;55.782;37.528;2022-08-07T04:22:28;99853.97;;;24.96;100.00
35435;BME280;21556;55.782;37.528;2022-08-07T04:24:55;99862.56;;;24.82;100.00
35435;BME280;21556;55.782;37.528;2022-08-07T04:27:21;99859.22;;;24.77;100.00
35435;BME280;21556;55.782;37.528;2022-08-07T04:29:49;99857.66;;;24.93;100.00
35435;BME280;21556;55.782;37.528;2022-08-07T04:32:15;99862.16;;;24.93;100.00
35435;BME280;21556;55.782;37.528;2022-08-07T04:34:41;99855.06;;;24.92;100.00
35435;BME280;21556;55.782;37.528;2022-08-07T04:37:08;99857.03;;;24.87;100.00
35435;BME280;21556;55.782;37.528;2022-08-07T04:39:33;99852.91;;;24.78;100.00
35435;BME280;21556;55.782;37.528;2022-08-07T04:42:01;99860.66;;;24.86;100.00
35435;BME280;21556;55.782;37.528;2022-08-07T04:44:28;99857.72;;;24.70;100.00
35435;BME280;21556;55.782;37.528;2022-08-07T04:47:02;99855.50;;;24.80;100.00
35435;BME280;21556;55.782;37.528;2022-08-07T04:49:44;99856.72;;;24.94;100.00
35435;BME280;21556;55.782;37.528;2022-08-07T04:55:27;99859.47;;;25.16;100.00
35435;BME280;21556;55.782;37.528;2022-08-07T04:58:15;99861.88;;;25.23;100.00
35435;BME280;21556;55.782;37.528;2022-08-07T05:00:49;99862.13;;;25.38;100.00
35435;BME280;21556;55.782;37.528;2022-08-07T05:06:20;99862.63;;;25.26;100.00
35435;BME280;21556;55.782;37.528;2022-08-07T05:11:31;99853.19;;;25.38;100.00
35435;BME280;21556;55.782;37.528;2022-08-07T05:14:01;99853.47;;;25.52;100.00
35435;BME280;21556;55.782;37.528;2022-08-07T05:16:30;99865.78;;;25.58;100.00
35435;BME280;21556;55.782;37.528;2022-08-07T05:19:11;99855.38;;;25.50;100.00
35435;BME280;21556;55.782;37.528;2022-08-07T05:21:42;99853.13;;;25.39;100.00
35435;BME280;21556;55.782;37.528;2022-08-07T05:24:11;99850.00;;;25.50;100.00
35435;BME280;21556;55.782;37.528;2022-08-07T05:26:42;99848.22;;;25.71;100.00
35435;BME280;21556;55.782;37.528;2022-08-07T05:29:10;99847.44;;;25.89;100.00
35435;BME280;21556;55.782;37.528;2022-08-07T05:31:40;99848.06;;;25.74;100.00
35435;BME280;21556;55.782;37.528;2022-08-07T05:34:14;99852.38;;;25.78;100.00
35435;BME280;21556;55.782;37.528;2022-08-07T05:36:46;99847.88;;;25.99;100.00
35435;BME280;21556;55.782;37.528;2022-08-07T05:39:21;99854.47;;;26.12;100.00
35435;BME280;21556;55.782;37.528;2022-08-07T05:41:50;99872.25;;;26.35;100.00
35435;BME280;21556;55.782;37.528;2022-08-07T05:44:17;99865.75;;;26.60;100.00
35435;BME280;21556;55.782;37.528;2022-08-07T05:46:47;99861.56;;;26.92;100.00
35435;BME280;21556;55.782;37.528;2022-08-07T05:49:14;99856.22;;;26.91;100.00
35435;BME280;21556;55.782;37.528;2022-08-07T05:51:45;99867.53;;;26.80;100.00
35435;BME280;21556;55.782;37.528;2022-08-07T05:54:13;99864.47;;;26.87;100.00
35435;BME280;21556;55.782;37.528;2022-08-07T05:56:39;99861.47;;;26.75;100.00
35435;BME280;21556;55.782;37.528;2022-08-07T05:59:12;99863.38;;;26.73;100.00
35435;BME280;21556;55.782;37.528;2022-08-07T06:02:05;99867.88;;;26.72;100.00
35435;BME280;21556;55.782;37.528;2022-08-07T06:04:50;99868.22;;;26.83;100.00
35435;BME280;21556;55.782;37.528;2022-08-07T06:07:18;99869.69;;;26.72;100.00
35435;BME280;21556;55.782;37.528;2022-08-07T06:09:45;99868.78;;;26.73;100.00
35435;BME280;21556;55.782;37.528;2022-08-07T06:12:13;99867.44;;;26.62;100.00
35435;BME280;21556;55.782;37.528;2022-08-07T06:14:40;99867.94;;;26.71;100.00
35435;BME280;21556;55.782;37.528;2022-08-07T06:17:06;99863.31;;;26.74;100.00
35435;BME280;21556;55.782;37.528;2022-08-07T06:19:39;99857.66;;;26.98;100.00
35435;BME280;21556;55.782;37.528;2022-08-07T06:22:06;99875.50;;;27.00;100.00
35435;BME280;21556;55.782;37.528;2022-08-07T06:24:33;99879.25;;;27.34;100.00
35435;BME280;21556;55.782;37.528;2022-08-07T06:27:01;99872.41;;;27.46;100.00
35435;BME280;21556;55.782;37.528;2022-08-07T06:29:32;99874.78;;;27.69;100.00
35435;BME280;21556;55.782;37.528;2022-08-07T06:32:00;99867.66;;;28.03;100.00
35435;BME280;21556;55.782;37.528;2022-08-07T06:34:28;99868.94;;;28.13;100.00
35435;BME280;21556;55.782;37.528;2022-08-07T06:36:54;99863.63;;;28.12;100.00
35435;BME280;21556;55.782;37.528;2022-08-07T06:39:29;99863.84;;;28.24;100.00
35435;BME280;21556;55.782;37.528;2022-08-07T06:44:51;99872.16;;;28.37;100.00
35435;BME280;21556;55.782;37.528;2022-08-07T06:47:20;99864.53;;;28.45;100.00
35435;BME280;21556;55.782;37.528;2022-08-07T06:49:46;99863.50;;;28.48;100.00
35435;BME280;21556;55.782;37.528;2022-08-07T06:52:12;99862.16;;;28.88;100.00
35435;BME280;21556;55.782;37.528;2022-08-07T06:54:41;99871.47;;;28.83;100.00
35435;BME280;21556;55.782;37.528;2022-08-07T06:57:08;99860.44;;;29.03;100.00
35435;BME280;21556;55.782;37.528;2022-08-07T06:59:40;99857.91;;;29.32;100.00
35435;BME280;21556;55.782;37.528;2022-08-07T07:02:11;99863.59;;;29.57;100.00
35435;BME280;21556;55.782;37.528;2022-08-07T07:04:44;99862.59;;;29.28;100.00
35435;BME280;21556;55.782;37.528;2022-08-07T07:07:10;99864.66;;;29.09;100.00
35435;BME280;21556;55.782;37.528;2022-08-07T07:09:43;99870.16;;;28.90;100.00
35435;BME280;21556;55.782;37.528;2022-08-07T07:12:29;99863.41;;;28.32;100.00
35435;BME280;21556;55.782;37.528;2022-08-07T07:15:29;99862.13;;;28.06;100.00
35435;BME280;21556;55.782;37.528;2022-08-07T07:17:57;99864.81;;;28.06;100.00
35435;BME280;21556;55.782;37.528;2022-08-07T07:20:38;99867.59;;;28.04;100.00
35435;BME280;21556;55.782;37.528;2022-08-07T07:23:07;99873.00;;;27.87;100.00
35435;BME280;21556;55.782;37.528;2022-08-07T07:25:36;99878.97;;;27.94;100.00
35435;BME280;21556;55.782;37.528;2022-08-07T07:28:21;99874.34;;;27.96;100.00
35435;BME280;21556;55.782;37.528;2022-08-07T07:31:00;99878.25;;;28.07;100.00
35435;BME280;21556;55.782;37.528;2022-08-07T07:33:29;99873.25;;;28.99;100.00
35435;BME280;21556;55.782;37.528;2022-08-07T07:35:57;99873.72;;;29.54;100.00
35435;BME280;21556;55.782;37.528;2022-08-07T07:38:24;99865.06;;;30.52;100.00
35435;BME280;21556;55.782;37.528;2022-08-07T07:40:53;99870.47;;;31.22;94.27
35435;BME280;21556;55.782;37.528;2022-08-07T07:43:21;99856.47;;;31.69;87.44
35435;BME280;21556;55.782;37.528;2022-08-07T07:45:49;99860.47;;;32.16;84.32
35435;BME280;21556;55.782;37.528;2022-08-07T07:48:18;99852.00;;;32.59;76.94
35435;BME280;21556;55.782;37.528;2022-08-07T07:50:46;99860.28;;;32.45;73.65
35435;BME280;21556;55.782;37.528;2022-08-07T07:53:14;99850.81;;;32.63;74.12
35435;BME280;21556;55.782;37.528;2022-08-07T07:55:43;99854.34;;;33.02;71.28
35435;BME280;21556;55.782;37.528;2022-08-07T07:58:10;99853.97;;;33.06;68.76
35435;BME280;21556;55.782;37.528;2022-08-07T08:00:38;99848.03;;;33.25;68.32
35435;BME280;21556;55.782;37.528;2022-08-07T08:03:07;99858.44;;;32.45;76.40
35435;BME280;21556;55.782;37.528;2022-08-07T08:05:39;99855.78;;;32.05;83.08
35435;BME280;21556;55.782;37.528;2022-08-07T08:08:07;99867.69;;;31.37;90.30
35435;BME280;21556;55.782;37.528;2022-08-07T08:10:33;99866.75;;;31.10;94.60
35435;BME280;21556;55.782;37.528;2022-08-07T08:13:00;99855.09;;;30.38;100.00
35435;BME280;21556;55.782;37.528;2022-08-07T08:15:29;99863.41;;;30.92;99.45
35435;BME280;21556;55.782;37.528;2022-08-07T08:17:56;99852.44;;;31.89;87.27
35435;BME280;21556;55.782;37.528;2022-08-07T08:20:23;99867.66;;;32.43;83.01
35435;BME280;21556;55.782;37.528;2022-08-07T08:22:51;99855.44;;;32.87;78.32
35435;BME280;21556;55.782;37.528;2022-08-07T08:25:39;99844.47;;;33.49;76.35
35435;BME280;21556;55.782;37.528;2022-08-07T08:28:27;99847.25;;;33.60;74.20
35435;BME280;21556;55.782;37.528;2022-08-07T08:30:58;99845.06;;;33.88;70.74
35435;BME280;21556;55.782;37.528;2022-08-07T08:33:28;99843.75;;;33.93;67.95
35435;BME280;21556;55.782;37.528;2022-08-07T08:35:56;99843.56;;;34.19;64.89
35435;BME280;21556;55.782;37.528;2022-08-07T08:38:31;99849.69;;;33.98;57.91
35435;BME280;21556;55.782;37.528;2022-08-07T08:41:10;99844.97;;;34.81;53.41
35435;BME280;21556;55.782;37.528;2022-08-07T08:43:53;99840.47;;;35.13;47.35
35435;BME280;21556;55.782;37.528;2022-08-07T08:46:32;99831.78;;;35.63;49.30
35435;BME280;21556;55.782;37.528;2022-08-07T08:49:15;99823.66;;;34.30;54.95
35435;BME280;21556;55.782;37.528;2022-08-07T08:52:02;99832.38;;;34.57;58.21
35435;BME280;21556;55.782;37.528;2022-08-07T08:54:34;99825.41;;;34.53;51.81
35435;BME280;21556;55.782;37.528;2022-08-07T08:57:07;99824.88;;;35.15;49.93
35435;BME280;21556;55.782;37.528;2022-08-07T09:00:11;99817.63;;;35.26;50.31
35435;BME280;21556;55.782;37.528;2022-08-07T09:02:40;99822.59;;;34.55;58.20
35435;BME280;21556;55.782;37.528;2022-08-07T09:05:32;99815.00;;;34.24;61.89
35435;BME280;21556;55.782;37.528;2022-08-07T09:11:23;99825.53;;;33.23;71.04
35435;BME280;21556;55.782;37.528;2022-08-07T09:19:21;99820.34;;;33.20;53.55
35435;BME280;21556;55.782;37.528;2022-08-07T09:22:14;99820.91;;;32.76;57.44
35435;BME280;21556;55.782;37.528;2022-08-07T09:27:35;99818.66;;;33.06;59.98
35435;BME280;21556;55.782;37.528;2022-08-07T09:30:09;99817.28;;;33.49;52.91
35435;BME280;21556;55.782;37.528;2022-08-07T09:32:55;99810.91;;;33.72;53.00
35435;BME280;21556;55.782;37.528;2022-08-07T09:38:05;99792.34;;;34.13;51.73
35435;BME280;21556;55.782;37.528;2022-08-07T09:48:57;99789.50;;;34.70;44.70
35435;BME280;21556;55.782;37.528;2022-08-07T09:51:30;99784.56;;;34.76;45.19
35435;BME280;21556;55.782;37.528;2022-08-07T09:54:02;99784.91;;;35.26;45.43
35435;BME280;21556;55.782;37.528;2022-08-07T10:10:37;99758.22;;;35.29;40.33
35435;BME280;21556;55.782;37.528;2022-08-07T10:13:20;99762.47;;;36.17;36.17
35435;BME280;21556;55.782;37.528;2022-08-07T10:24:55;99768.25;;;36.64;35.64
35435;BME280;21556;55.782;37.528;2022-08-07T10:27:44;99768.59;;;35.88;40.97
35435;BME280;21556;55.782;37.528;2022-08-07T10:30:26;99782.97;;;35.16;39.51
35435;BME280;21556;55.782;37.528;2022-08-07T10:36:12;99774.22;;;34.90;43.06
35435;BME280;21556;55.782;37.528;2022-08-07T10:39:02;99755.41;;;35.31;41.93
35435;BME280;21556;55.782;37.528;2022-08-07T10:41:35;99771.25;;;35.79;35.86
35435;BME280;21556;55.782;37.528;2022-08-07T10:52:38;99740.88;;;35.09;36.52
35435;BME280;21556;55.782;37.528;2022-08-07T10:55:19;99736.78;;;34.04;39.81
35435;BME280;21556;55.782;37.528;2022-08-07T11:00:30;99734.78;;;34.06;40.73
35435;BME280;21556;55.782;37.528;2022-08-07T11:03:04;99745.66;;;33.95;41.48
35435;BME280;21556;55.782;37.528;2022-08-07T11:06:07;99737.00;;;33.43;43.27
35435;BME280;21556;55.782;37.528;2022-08-07T11:08:45;99739.81;;;32.82;46.03
35435;BME280;21556;55.782;37.528;2022-08-07T11:11:20;99741.91;;;32.29;49.98
35435;BME280;21556;55.782;37.528;2022-08-07T11:16:46;99736.84;;;32.12;52.58
35435;BME280;21556;55.782;37.528;2022-08-07T11:27:31;99759.25;;;31.10;90.21
35435;BME280;21556;55.782;37.528;2022-08-07T11:30:23;99802.13;;;30.05;100.00
35435;BME280;21556;55.782;37.528;2022-08-07T11:35:45;99802.13;;;29.31;100.00
35435;BME280;21556;55.782;37.528;2022-08-07T11:38:29;99798.94;;;28.76;100.00
35435;BME280;21556;55.782;37.528;2022-08-07T11:41:14;99798.31;;;28.71;100.00
35435;BME280;21556;55.782;37.528;2022-08-07T11:43:55;99803.91;;;29.00;100.00
35435;BME280;21556;55.782;37.528;2022-08-07T11:46:37;99811.22;;;28.66;100.00
35435;BME280;21556;55.782;37.528;2022-08-07T11:52:26;99825.91;;;28.27;100.00
35435;BME280;21556;55.782;37.528;2022-08-07T11:57:45;99825.41;;;27.69;100.00
35435;BME280;21556;55.782;37.528;2022-08-07T12:00:47;99829.47;;;27.60;100.00
35435;BME280;21556;55.782;37.528;2022-08-07T12:06:11;99845.91;;;27.36;100.00
35435;BME280;21556;55.782;37.528;2022-08-07T12:08:57;99847.34;;;27.44;100.00
35435;BME280;21556;55.782;37.528;2022-08-07T12:11:44;99853.75;;;27.24;100.00
35435;BME280;21556;55.782;37.528;2022-08-07T12:14:17;99855.78;;;27.19;100.00
35435;BME280;21556;55.782;37.528;2022-08-07T12:17:10;99859.00;;;26.70;100.00
35435;BME280;21556;55.782;37.528;2022-08-07T12:25:05;99866.66;;;26.01;100.00
35435;BME280;21556;55.782;37.528;2022-08-07T12:31:06;99854.25;;;26.17;100.00
35435;BME280;21556;55.782;37.528;2022-08-07T12:33:36;99870.59;;;26.12;100.00
35435;BME280;21556;55.782;37.528;2022-08-07T12:36:04;99876.34;;;26.44;100.00
35435;BME280;21556;55.782;37.528;2022-08-07T12:38:32;99879.53;;;26.33;100.00
35435;BME280;21556;55.782;37.528;2022-08-07T12:41:00;99897.41;;;26.34;100.00
35435;BME280;21556;55.782;37.528;2022-08-07T12:43:30;99914.81;;;26.46;100.00
35435;BME280;21556;55.782;37.528;2022-08-07T12:46:11;99922.91;;;26.65;100.00
35435;BME280;21556;55.782;37.528;2022-08-07T12:51:18;99906.53;;;26.10;100.00
35435;BME280;21556;55.782;37.528;2022-08-07T12:53:56;99911.47;;;26.00;100.00
35435;BME280;21556;55.782;37.528;2022-08-07T12:56:37;99909.94;;;26.15;100.00
35435;BME280;21556;55.782;37.528;2022-08-07T12:59:07;99903.13;;;26.06;100.00
35435;BME280;21556;55.782;37.528;2022-08-07T13:01:57;99910.66;;;25.98;100.00
35435;BME280;21556;55.782;37.528;2022-08-07T13:04:29;99920.53;;;25.98;100.00
35435;BME280;21556;55.782;37.528;2022-08-07T13:07:19;99915.81;;;26.44;100.00
35435;BME280;21556;55.782;37.528;2022-08-07T13:10:13;99908.16;;;26.55;100.00
35435;BME280;21556;55.782;37.528;2022-08-07T13:16:09;99926.44;;;26.47;100.00
35435;BME280;21556;55.782;37.528;2022-08-07T13:21:32;99944.66;;;26.40;100.00
35435;BME280;21556;55.782;37.528;2022-08-07T13:24:19;99940.50;;;26.53;100.00
35435;BME280;21556;55.782;37.528;2022-08-07T13:27:13;99925.91;;;26.38;100.00
35435;BME280;21556;55.782;37.528;2022-08-07T13:32:26;99930.66;;;26.32;100.00
35435;BME280;21556;55.782;37.528;2022-08-07T13:35:55;99925.19;;;26.14;100.00
35435;BME280;21556;55.782;37.528;2022-08-07T13:38:15;99916.03;;;26.19;100.00
35435;BME280;21556;55.782;37.528;2022-08-07T13:40:56;99922.72;;;26.29;100.00
35435;BME280;21556;55.782;37.528;2022-08-07T13:43:26;99929.28;;;26.23;100.00
35435;BME280;21556;55.782;37.528;2022-08-07T13:45:56;99931.22;;;25.99;100.00
35435;BME280;21556;55.782;37.528;2022-08-07T13:48:24;99925.41;;;26.29;100.00
35435;BME280;21556;55.782;37.528;2022-08-07T13:50:53;99925.66;;;26.04;100.00
35435;BME280;21556;55.782;37.528;2022-08-07T13:53:21;99926.28;;;25.88;100.00
35435;BME280;21556;55.782;37.528;2022-08-07T13:55:51;99916.97;;;25.97;100.00
35435;BME280;21556;55.782;37.528;2022-08-07T13:58:18;99909.59;;;25.82;100.00
35435;BME280;21556;55.782;37.528;2022-08-07T14:01:13;99907.69;;;26.25;100.00
35435;BME280;21556;55.782;37.528;2022-08-07T14:03:40;99910.06;;;26.12;100.00
35435;BME280;21556;55.782;37.528;2022-08-07T14:06:09;99908.84;;;25.99;100.00
35435;BME280;21556;55.782;37.528;2022-08-07T14:08:42;99911.44;;;25.80;100.00
35435;BME280;21556;55.782;37.528;2022-08-07T14:11:11;99914.88;;;25.61;100.00
35435;BME280;21556;55.782;37.528;2022-08-07T14:13:40;99913.19;;;25.59;100.00
35435;BME280;21556;55.782;37.528;2022-08-07T14:16:12;99917.78;;;25.79;100.00
35435;BME280;21556;55.782;37.528;2022-08-07T14:18:44;99921.88;;;25.87;100.00
35435;BME280;21556;55.782;37.528;2022-08-07T14:21:13;99920.00;;;25.67;100.00
35435;BME280;21556;55.782;37.528;2022-08-07T14:23:47;99911.91;;;25.47;100.00
35435;BME280;21556;55.782;37.528;2022-08-07T14:26:22;99913.09;;;25.40;100.00
35435;BME280;21556;55.782;37.528;2022-08-07T14:28:52;99903.72;;;25.28;100.00
35435;BME280;21556;55.782;37.528;2022-08-07T14:31:22;99906.97;;;25.36;100.00
35435;BME280;21556;55.782;37.528;2022-08-07T14:33:51;99903.59;;;25.53;100.00
35435;BME280;21556;55.782;37.528;2022-08-07T14:36:17;99894.72;;;25.51;100.00
35435;BME280;21556;55.782;37.528;2022-08-07T14:38:44;99899.50;;;25.65;100.00
35435;BME280;21556;55.782;37.528;2022-08-07T14:41:28;99885.38;;;25.60;100.00
35435;BME280;21556;55.782;37.528;2022-08-07T14:44:03;99886.06;;;25.65;100.00
35435;BME280;21556;55.782;37.528;2022-08-07T14:46:31;99877.53;;;25.55;100.00
35435;BME280;21556;55.782;37.528;2022-08-07T14:48:59;99893.38;;;25.83;100.00
35435;BME280;21556;55.782;37.528;2022-08-07T14:51:26;99890.63;;;25.63;100.00
35435;BME280;21556;55.782;37.528;2022-08-07T14:53:56;99902.66;;;25.54;100.00
35435;BME280;21556;55.782;37.528;2022-08-07T14:56:23;99903.84;;;25.47;100.00
35435;BME280;21556;55.782;37.528;2022-08-07T14:58:54;99898.06;;;25.56;100.00
35435;BME280;21556;55.782;37.528;2022-08-07T15:01:33;99892.91;;;25.94;100.00
35435;BME280;21556;55.782;37.528;2022-08-07T15:04:04;99901.19;;;25.89;100.00
35435;BME280;21556;55.782;37.528;2022-08-07T15:06:33;99908.34;;;25.89;100.00